Time;durP1;ratioP1;P1;durP2;ratioP2;P2;SDS_P1;SDS_P2;PMS_P1;PMS_P2;Temp;Humidity;BMP_temperature;BMP_pressure;BME280_temperature;BME280_humidity;BME280_pressure;Samples;Min_cycle;Max_cycle;Signal;HPM_P1;HPM_P2
2021/01/28 00:00:24;;;;;;;19.35;11.43;;;3.30;99.80;;;;;;5022533;28;20228;-82
2021/01/28 00:02:51;;;;;;;17.55;10.60;;;3.30;99.80;;;;;;4967231;28;587018;-82
2021/01/28 00:05:20;;;;;;;16.95;10.60;;;3.30;99.80;;;;;;5022182;28;20312;-82
2021/01/28 00:07:48;;;;;;;17.63;11.15;;;3.20;99.80;;;;;;5015695;28;20676;-81
2021/01/28 00:10:17;;;;;;;16.27;9.88;;;3.20;99.80;;;;;;5018639;28;20226;-80
2021/01/28 00:12:46;;;;;;;17.13;10.90;;;3.20;99.80;;;;;;5026194;28;20229;-81
2021/01/28 00:15:26;;;;;;;18.42;10.93;;;3.20;99.80;;;;;;5028618;28;20232;-82
2021/01/28 00:17:53;;;;;;;16.52;11.27;;;3.20;99.80;;;;;;5014253;28;20232;-82
2021/01/28 00:20:25;;;;;;;21.73;12.38;;;3.20;99.80;;;;;;5011464;28;20241;-84
2021/01/28 00:22:52;;;;;;;19.05;11.20;;;3.20;99.80;;;;;;5006081;28;20895;-84
2021/01/28 00:25:21;;;;;;;17.20;10.48;;;3.20;99.80;;;;;;5008810;28;20229;-84
2021/01/28 00:27:53;;;;;;;19.98;11.13;;;3.20;99.80;;;;;;5016335;28;20268;-82
2021/01/28 00:30:25;;;;;;;15.57;10.07;;;3.20;99.80;;;;;;5013751;28;20469;-83
2021/01/28 00:32:53;;;;;;;18.23;10.40;;;3.30;99.80;;;;;;5013141;28;20244;-81
2021/01/28 00:35:26;;;;;;;16.15;10.52;;;3.20;99.80;;;;;;5013477;28;20312;-81
2021/01/28 00:37:54;;;;;;;13.93;9.50;;;3.20;99.80;;;;;;5016274;28;20240;-83
2021/01/28 00:40:22;;;;;;;16.75;10.18;;;3.20;99.80;;;;;;4984558;28;20268;-83
2021/01/28 00:42:52;;;;;;;21.70;10.35;;;3.20;99.80;;;;;;5019514;28;20768;-83
2021/01/28 00:45:20;;;;;;;17.05;10.40;;;3.20;99.80;;;;;;5005911;28;20230;-82
2021/01/28 00:47:48;;;;;;;21.05;9.98;;;3.20;99.80;;;;;;5012576;28;20230;-83
2021/01/28 00:50:21;;;;;;;15.93;10.10;;;3.20;99.80;;;;;;5014159;28;20315;-83
2021/01/28 00:52:49;;;;;;;17.38;10.38;;;3.20;99.80;;;;;;5006675;28;20289;-83
2021/01/28 00:55:18;;;;;;;19.17;12.10;;;3.20;99.80;;;;;;4999655;28;20228;-81
2021/01/28 00:57:45;;;;;;;20.33;10.93;;;3.20;99.80;;;;;;5000390;28;20627;-83
2021/01/28 01:00:16;;;;;;;15.07;10.88;;;3.20;99.80;;;;;;5029298;28;20230;-83
2021/01/28 01:02:45;;;;;;;18.70;11.07;;;3.20;99.80;;;;;;5020406;28;20699;-83
2021/01/28 01:05:15;;;;;;;16.85;10.48;;;3.30;99.80;;;;;;5032597;28;20703;-83
2021/01/28 01:07:42;;;;;;;18.23;10.43;;;3.30;99.80;;;;;;5001689;28;20230;-83
2021/01/28 01:10:17;;;;;;;19.25;11.10;;;3.30;99.80;;;;;;5025488;28;20245;-82
2021/01/28 01:12:43;;;;;;;16.25;10.25;;;3.30;99.80;;;;;;5020005;28;20234;-83
2021/01/28 01:15:11;;;;;;;17.45;9.55;;;3.30;99.80;;;;;;5026854;28;20252;-84
2021/01/28 01:17:39;;;;;;;17.80;11.57;;;3.40;99.80;;;;;;5033078;28;20321;-83
2021/01/28 01:20:08;;;;;;;15.48;9.45;;;3.40;99.80;;;;;;5032393;28;20648;-83
2021/01/28 01:22:35;;;;;;;15.70;9.98;;;3.40;99.80;;;;;;5032373;28;20305;-83
2021/01/28 01:25:05;;;;;;;17.95;10.02;;;3.40;99.80;;;;;;5021929;28;20258;-84
2021/01/28 01:27:36;;;;;;;19.33;10.73;;;3.40;99.80;;;;;;5015022;28;20234;-84
2021/01/28 01:30:04;;;;;;;19.90;11.20;;;3.40;99.80;;;;;;5014940;28;20689;-84
2021/01/28 01:32:31;;;;;;;15.60;9.77;;;3.40;99.80;;;;;;5031741;28;20234;-81
2021/01/28 01:34:59;;;;;;;19.15;11.40;;;3.40;99.80;;;;;;5021785;28;20228;-84
2021/01/28 01:37:26;;;;;;;17.52;11.02;;;3.30;99.80;;;;;;5015258;28;20240;-83
2021/01/28 01:39:54;;;;;;;19.20;11.30;;;3.40;99.80;;;;;;5012988;28;20270;-84
2021/01/28 01:42:23;;;;;;;19.00;10.82;;;3.40;99.80;;;;;;5014295;28;20225;-82
2021/01/28 01:44:50;;;;;;;20.33;11.27;;;3.30;99.80;;;;;;5002206;28;20675;-83
2021/01/28 01:47:35;;;;;;;18.05;10.52;;;3.30;99.80;;;;;;5016132;28;20236;-81
2021/01/28 01:50:05;;;;;;;18.33;11.38;;;3.30;99.80;;;;;;5023923;28;20241;-82
2021/01/28 01:52:36;;;;;;;21.73;11.55;;;3.40;99.80;;;;;;5013921;28;20223;-81
2021/01/28 01:55:04;;;;;;;19.60;12.15;;;3.40;99.80;;;;;;5015800;28;20234;-81
2021/01/28 01:57:36;;;;;;;22.30;12.48;;;3.40;99.80;;;;;;5022028;28;20224;-84
2021/01/28 02:00:10;;;;;;;22.15;12.23;;;3.40;99.80;;;;;;5019878;28;20229;-82
2021/01/28 02:02:39;;;;;;;24.00;13.00;;;3.40;99.80;;;;;;5035531;28;20233;-84
2021/01/28 02:05:16;;;;;;;28.25;15.93;;;3.40;99.80;;;;;;5032404;28;20227;-84
2021/01/28 02:07:45;;;;;;;22.58;12.70;;;3.40;99.80;;;;;;5015937;28;20765;-84
2021/01/28 02:10:16;;;;;;;21.42;11.80;;;3.40;99.80;;;;;;5002326;28;20232;-83
2021/01/28 02:12:43;;;;;;;21.52;11.38;;;3.40;99.80;;;;;;5000677;28;20716;-84
2021/01/28 02:15:13;;;;;;;23.92;13.75;;;3.40;99.80;;;;;;5028676;28;20237;-84
2021/01/28 02:17:42;;;;;;;22.67;13.82;;;3.40;99.80;;;;;;5019958;28;20237;-83
2021/01/28 02:20:27;;;;;;;19.67;12.23;;;3.40;99.80;;;;;;5000228;28;20233;-82
2021/01/28 02:23:02;;;;;;;21.95;11.52;;;3.40;99.80;;;;;;5001885;28;20260;-84
2021/01/28 02:25:33;;;;;;;23.52;13.55;;;3.40;99.80;;;;;;5010415;28;20737;-82
2021/01/28 02:28:05;;;;;;;24.80;13.45;;;3.40;99.80;;;;;;5007973;28;20790;-82
2021/01/28 02:30:33;;;;;;;20.08;13.00;;;3.40;99.80;;;;;;5027657;28;20319;-83
2021/01/28 02:33:00;;;;;;;21.50;11.75;;;3.40;99.80;;;;;;5030585;28;20229;-84
2021/01/28 02:35:30;;;;;;;22.33;12.60;;;3.40;99.80;;;;;;5030416;28;20786;-84
2021/01/28 02:37:59;;;;;;;28.27;13.30;;;3.50;99.80;;;;;;5022646;28;20312;-82
2021/01/28 02:40:28;;;;;;;21.70;11.82;;;3.50;99.80;;;;;;5021215;28;20224;-83
2021/01/28 02:42:56;;;;;;;25.58;12.68;;;3.50;99.80;;;;;;5006569;28;20422;-84
2021/01/28 02:45:27;;;;;;;20.38;11.70;;;3.50;99.80;;;;;;5022258;28;20618;-84
2021/01/28 02:47:56;;;;;;;19.60;13.35;;;3.50;99.80;;;;;;5033458;28;20232;-82
2021/01/28 02:50:26;;;;;;;23.65;13.63;;;3.60;99.80;;;;;;5018492;28;20772;-84
2021/01/28 02:52:54;;;;;;;20.63;11.95;;;3.50;99.80;;;;;;5016163;28;20237;-83
2021/01/28 02:55:21;;;;;;;25.00;14.20;;;3.50;99.80;;;;;;5013626;28;20232;-82
2021/01/28 02:57:48;;;;;;;19.63;11.80;;;3.50;99.80;;;;;;5028483;28;20296;-83
2021/01/28 03:00:22;;;;;;;24.20;12.45;;;3.50;99.80;;;;;;5031095;28;20227;-81
2021/01/28 03:02:50;;;;;;;20.05;11.68;;;3.50;99.80;;;;;;5041939;28;20190;-83
2021/01/28 03:05:18;;;;;;;23.80;13.20;;;3.50;99.80;;;;;;5037882;28;20198;-83
2021/01/28 03:07:46;;;;;;;22.83;13.65;;;3.50;99.80;;;;;;5036497;28;20221;-84
2021/01/28 03:10:13;;;;;;;21.60;11.80;;;3.50;99.80;;;;;;5037612;28;20701;-84
2021/01/28 03:12:40;;;;;;;21.13;12.27;;;3.50;99.80;;;;;;5022068;28;20225;-83
2021/01/28 03:15:10;;;;;;;19.67;11.63;;;3.50;99.80;;;;;;5036503;28;20230;-84
2021/01/28 03:17:37;;;;;;;22.38;11.98;;;3.50;99.80;;;;;;5031938;28;20225;-83
2021/01/28 03:20:07;;;;;;;23.25;12.73;;;3.50;99.80;;;;;;5033657;28;20287;-83
2021/01/28 03:22:34;;;;;;;24.35;12.90;;;3.50;99.80;;;;;;5026953;28;20662;-84
2021/01/28 03:25:01;;;;;;;30.80;13.15;;;3.60;99.80;;;;;;5016313;28;20227;-83
2021/01/28 03:27:28;;;;;;;23.55;11.85;;;3.60;99.80;;;;;;5022641;28;20286;-83
2021/01/28 03:29:55;;;;;;;23.65;12.02;;;3.50;99.80;;;;;;5023399;28;20236;-84
2021/01/28 03:32:22;;;;;;;22.77;11.98;;;3.60;99.80;;;;;;5032530;28;20222;-83
2021/01/28 03:34:50;;;;;;;27.88;11.65;;;3.60;99.80;;;;;;5023375;28;20271;-83
2021/01/28 03:37:17;;;;;;;25.33;12.98;;;3.60;99.80;;;;;;5033357;28;20590;-81
2021/01/28 03:39:44;;;;;;;16.75;11.02;;;3.60;99.80;;;;;;5023169;28;20325;-81
2021/01/28 03:42:11;;;;;;;21.83;12.07;;;3.60;99.80;;;;;;5019877;28;20229;-82
2021/01/28 03:44:38;;;;;;;23.05;13.07;;;3.50;99.80;;;;;;5031542;28;20240;-82
2021/01/28 03:47:07;;;;;;;18.55;12.60;;;3.50;99.80;;;;;;5028785;28;20238;-83
2021/01/28 03:49:34;;;;;;;25.75;13.45;;;3.50;99.80;;;;;;5031111;28;20230;-84
2021/01/28 03:52:03;;;;;;;25.35;12.73;;;3.50;99.80;;;;;;5031294;28;20706;-84
2021/01/28 03:54:30;;;;;;;24.77;14.00;;;3.50;99.80;;;;;;5021974;28;20583;-84
2021/01/28 03:56:59;;;;;;;23.75;14.05;;;3.50;99.80;;;;;;5006453;28;20231;-83
2021/01/28 03:59:26;;;;;;;23.98;13.27;;;3.50;99.80;;;;;;5010528;28;20624;-84
2021/01/28 04:01:53;;;;;;;21.60;12.75;;;3.50;99.80;;;;;;5036553;28;20226;-84
2021/01/28 04:04:20;;;;;;;25.70;14.15;;;3.50;99.80;;;;;;5026670;28;20323;-84
2021/01/28 04:06:48;;;;;;;20.95;12.88;;;3.50;99.80;;;;;;5013451;28;20242;-82
2021/01/28 04:09:16;;;;;;;25.95;14.77;;;3.50;99.80;;;;;;5020794;28;20292;-83
2021/01/28 04:11:43;;;;;;;23.58;12.90;;;3.50;99.80;;;;;;5018431;28;20244;-82
2021/01/28 04:14:11;;;;;;;28.08;14.10;;;3.50;99.80;;;;;;5018039;28;20220;-84
2021/01/28 04:16:38;;;;;;;30.05;14.38;;;3.50;99.80;;;;;;5032729;28;20284;-81
2021/01/28 04:19:05;;;;;;;25.65;15.20;;;3.50;99.80;;;;;;5032307;28;20248;-82
2021/01/28 04:21:33;;;;;;;25.50;13.98;;;3.50;99.80;;;;;;5030482;28;20645;-82
2021/01/28 04:24:00;;;;;;;23.90;12.38;;;3.50;99.80;;;;;;5029082;28;20243;-81
2021/01/28 04:26:28;;;;;;;24.73;13.20;;;3.50;99.80;;;;;;5022230;28;20665;-82
2021/01/28 04:28:58;;;;;;;28.58;14.85;;;3.50;99.80;;;;;;5017127;28;20811;-83
2021/01/28 04:31:25;;;;;;;26.23;14.65;;;3.50;99.80;;;;;;5030516;28;20226;-84
2021/01/28 04:33:52;;;;;;;28.00;14.93;;;3.70;99.80;;;;;;5031011;28;20249;-83
2021/01/28 04:36:20;;;;;;;25.58;13.27;;;3.70;99.80;;;;;;5023128;28;20221;-84
2021/01/28 04:38:49;;;;;;;29.35;15.27;;;3.70;99.80;;;;;;5010485;28;20236;-84
2021/01/28 04:41:20;;;;;;;29.92;16.27;;;3.70;99.80;;;;;;5012097;28;20315;-83
2021/01/28 04:43:50;;;;;;;32.50;16.20;;;3.70;99.80;;;;;;5027025;28;20242;-85
2021/01/28 04:46:24;;;;;;;32.30;16.40;;;3.70;99.80;;;;;;5025884;28;20222;-84
2021/01/28 04:48:52;;;;;;;30.60;15.77;;;3.70;99.80;;;;;;5016920;28;20227;-84
2021/01/28 04:51:19;;;;;;;32.55;15.10;;;3.70;99.80;;;;;;5009682;28;20242;-82
2021/01/28 04:53:51;;;;;;;32.20;15.68;;;3.60;99.80;;;;;;5013030;28;20765;-84
2021/01/28 04:56:22;;;;;;;33.08;17.30;;;3.60;99.80;;;;;;5025302;28;20215;-83
2021/01/28 04:58:53;;;;;;;32.88;16.63;;;3.60;99.80;;;;;;5008857;28;20236;-82
2021/01/28 05:01:20;;;;;;;29.17;14.57;;;3.60;99.80;;;;;;5041977;28;20233;-83
2021/01/28 05:03:51;;;;;;;31.92;16.23;;;3.60;99.80;;;;;;5028909;28;20234;-83
2021/01/28 05:06:19;;;;;;;30.70;15.80;;;3.60;99.80;;;;;;5025856;28;20646;-83
2021/01/28 05:08:45;;;;;;;30.05;15.70;;;3.60;99.80;;;;;;5001683;28;20217;-82
2021/01/28 05:11:22;;;;;;;32.60;15.85;;;3.60;99.80;;;;;;4985185;28;20276;-83
2021/01/28 05:13:50;;;;;;;35.10;16.05;;;3.60;99.80;;;;;;5002724;28;20239;-82
2021/01/28 05:16:41;;;;;;;26.75;14.68;;;3.60;99.80;;;;;;5033724;28;20226;-83
2021/01/28 05:19:13;;;;;;;26.63;14.55;;;3.60;99.80;;;;;;5012438;28;20234;-84
2021/01/28 05:21:45;;;;;;;30.45;15.00;;;3.70;99.80;;;;;;5003469;28;20240;-83
2021/01/28 05:24:24;;;;;;;31.42;15.15;;;3.70;99.80;;;;;;5000655;28;20316;-82
2021/01/28 05:26:51;;;;;;;28.20;14.75;;;3.70;99.80;;;;;;5002994;28;20245;-82
2021/01/28 05:29:26;;;;;;;35.47;16.02;;;3.70;99.80;;;;;;5012006;28;20234;-82
2021/01/28 05:31:56;;;;;;;30.05;15.10;;;3.70;99.80;;;;;;5036847;28;20233;-82
2021/01/28 05:34:27;;;;;;;30.23;16.25;;;3.70;99.80;;;;;;5029285;28;20251;-84
2021/01/28 05:36:59;;;;;;;32.30;16.25;;;3.70;99.80;;;;;;5031053;28;20228;-83
2021/01/28 05:39:31;;;;;;;29.85;15.10;;;3.70;99.80;;;;;;5002731;28;20791;-82
2021/01/28 05:42:11;;;;;;;33.67;15.52;;;3.70;99.80;;;;;;5013614;28;20293;-83
2021/01/28 05:44:39;;;;;;;34.55;16.00;;;3.70;99.80;;;;;;5009364;28;20309;-82
2021/01/28 05:47:11;;;;;;;30.95;15.90;;;3.60;99.80;;;;;;5038200;28;20238;-82
2021/01/28 05:49:41;;;;;;;29.77;14.70;;;3.70;99.80;;;;;;5015506;28;20265;-81
2021/01/28 05:52:26;;;;;;;25.17;14.15;;;3.70;99.80;;;;;;5029218;28;20235;-84
2021/01/28 05:55:06;;;;;;;29.25;13.80;;;3.70;99.80;;;;;;5009385;28;20255;-81
2021/01/28 05:57:39;;;;;;;28.10;14.82;;;3.70;99.80;;;;;;5003035;28;20278;-83
2021/01/28 06:00:17;;;;;;;31.65;14.55;;;3.70;99.80;;;;;;5027724;28;20233;-84
2021/01/28 06:03:26;;;;;;;28.73;13.52;;;3.70;99.80;;;;;;5028724;28;20330;-82
2021/01/28 06:06:03;;;;;;;33.95;15.75;;;3.70;99.80;;;;;;5029415;28;20225;-82
2021/01/28 06:08:47;;;;;;;28.90;13.90;;;3.70;99.80;;;;;;5030548;28;20767;-81
2021/01/28 06:11:41;;;;;;;31.95;15.52;;;3.70;99.80;;;;;;5009762;28;20317;-82
2021/01/28 06:14:50;;;;;;;30.27;14.68;;;3.70;99.80;;;;;;5014349;28;20491;-84
2021/01/28 06:17:38;;;;;;;37.13;14.65;;;3.70;99.80;;;;;;5042540;28;20219;-84
2021/01/28 06:20:21;;;;;;;26.10;14.23;;;3.70;99.80;;;;;;5033018;28;20427;-81
2021/01/28 06:23:07;;;;;;;35.72;14.90;;;3.70;99.80;;;;;;5011283;28;20256;-84
2021/01/28 06:25:52;;;;;;;28.98;14.10;;;3.70;99.80;;;;;;5008682;28;20221;-84
2021/01/28 06:28:31;;;;;;;32.10;14.25;;;3.70;99.80;;;;;;5006387;28;20325;-84
2021/01/28 06:31:10;;;;;;;36.00;17.63;;;3.70;99.80;;;;;;5018302;28;20264;-84
2021/01/28 06:34:02;;;;;;;32.38;16.02;;;3.70;99.80;;;;;;5008399;28;20229;-84
2021/01/28 06:36:46;;;;;;;30.08;15.65;;;3.80;99.80;;;;;;5028841;28;20225;-82
2021/01/28 06:39:26;;;;;;;33.40;15.50;;;3.80;99.80;;;;;;5016774;28;20337;-81
2021/01/28 06:42:06;;;;;;;32.80;16.98;;;3.70;99.80;;;;;;5006690;28;20345;-83
2021/01/28 06:44:39;;;;;;;30.80;15.50;;;3.70;99.80;;;;;;5005578;28;20706;-81
2021/01/28 06:47:15;;;;;;;31.38;15.27;;;3.80;99.80;;;;;;5042557;28;20236;-82
2021/01/28 06:49:49;;;;;;;35.72;15.50;;;3.80;99.80;;;;;;5035263;28;20662;-80
2021/01/28 06:52:51;;;;;;;26.55;14.45;;;3.80;99.80;;;;;;5025291;28;20258;-78
2021/01/28 06:55:30;;;;;;;31.52;16.45;;;3.80;99.80;;;;;;5011160;28;20307;-80
2021/01/28 06:58:17;;;;;;;28.27;15.80;;;3.80;99.80;;;;;;4997868;28;20308;-82
2021/01/28 07:00:49;;;;;;;27.17;14.55;;;3.90;99.80;;;;;;5004912;28;20233;-82
2021/01/28 07:03:25;;;;;;;26.13;12.77;;;3.80;99.80;;;;;;5003764;28;20224;-80
2021/01/28 07:05:59;;;;;;;28.60;14.50;;;3.80;99.80;;;;;;5009132;28;20230;-81
2021/01/28 07:09:04;;;;;;;23.67;13.63;;;3.90;99.80;;;;;;4985631;28;20396;-82
2021/01/28 07:11:37;;;;;;;29.10;14.00;;;3.80;99.80;;;;;;5006091;28;20229;-81
2021/01/28 07:14:05;;;;;;;28.83;12.70;;;3.80;99.80;;;;;;4992111;28;20227;-80
2021/01/28 07:16:38;;;;;;;25.98;13.30;;;3.90;99.80;;;;;;5029509;28;20290;-79
2021/01/28 07:19:17;;;;;;;27.52;13.43;;;3.90;99.80;;;;;;5023890;28;20239;-81
2021/01/28 07:21:50;;;;;;;25.45;12.98;;;3.80;99.80;;;;;;5023621;28;20231;-80
2021/01/28 07:24:45;;;;;;;25.63;12.27;;;3.90;99.80;;;;;;5005221;28;20322;-82
2021/01/28 07:27:12;;;;;;;28.70;12.73;;;3.90;99.80;;;;;;5003619;28;20239;-82
2021/01/28 07:30:00;;;;;;;22.67;12.23;;;3.90;99.80;;;;;;5014114;28;20230;-80
2021/01/28 07:32:56;;;;;;;25.92;12.18;;;3.90;99.80;;;;;;5024795;28;20227;-82
2021/01/28 07:35:45;;;;;;;22.80;11.90;;;3.90;99.80;;;;;;4971562;28;20249;-82
2021/01/28 07:38:45;;;;;;;19.08;10.63;;;3.90;99.80;;;;;;5008769;28;20669;-82
2021/01/28 07:41:38;;;;;;;21.20;11.60;;;3.90;99.80;;;;;;5021163;28;20227;-83
2021/01/28 07:44:53;;;;;;;17.60;9.95;;;3.90;99.80;;;;;;4984251;28;20227;-82
2021/01/28 07:47:49;;;;;;;22.50;10.77;;;3.90;99.80;;;;;;5023967;28;20232;-82
2021/01/28 07:50:31;;;;;;;14.13;10.25;;;3.90;99.80;;;;;;5022258;28;20866;-82
2021/01/28 07:53:20;;;;;;;21.23;11.40;;;3.90;99.80;;;;;;5021306;28;20293;-82
2021/01/28 07:55:48;;;;;;;21.70;11.38;;;3.90;99.80;;;;;;5013390;28;20324;-82
2021/01/28 07:58:23;;;;;;;19.23;10.75;;;3.90;99.80;;;;;;5012797;28;20222;-80
2021/01/28 08:00:51;;;;;;;17.85;10.55;;;4.00;99.80;;;;;;5012060;28;20258;-83
2021/01/28 08:03:32;;;;;;;20.45;10.40;;;4.00;99.80;;;;;;5020681;28;20233;-82
2021/01/28 08:06:07;;;;;;;15.65;8.98;;;4.00;99.80;;;;;;5002473;28;20608;-83
2021/01/28 08:08:34;;;;;;;16.98;9.60;;;4.00;99.80;;;;;;4986700;28;20754;-81
2021/01/28 08:11:16;;;;;;;16.05;9.40;;;4.00;99.80;;;;;;5000107;28;20248;-81
2021/01/28 08:13:45;;;;;;;16.13;8.75;;;4.00;99.80;;;;;;5005848;28;20943;-81
2021/01/28 08:16:18;;;;;;;17.33;9.60;;;4.00;99.80;;;;;;5013963;28;20314;-80
2021/01/28 08:19:00;;;;;;;17.55;9.55;;;4.00;99.80;;;;;;5020489;28;20227;-81
2021/01/28 08:21:29;;;;;;;14.40;9.07;;;4.00;99.80;;;;;;5020081;28;20237;-79
2021/01/28 08:24:09;;;;;;;15.20;8.85;;;4.00;99.80;;;;;;5010780;28;20241;-80
2021/01/28 08:26:39;;;;;;;15.52;9.52;;;4.10;99.80;;;;;;4992249;28;20230;-81
2021/01/28 08:29:11;;;;;;;17.30;9.25;;;4.10;99.80;;;;;;5007720;28;20218;-80
2021/01/28 08:31:41;;;;;;;14.50;8.52;;;4.10;99.80;;;;;;5021495;28;20236;-81
2021/01/28 08:34:15;;;;;;;12.13;9.13;;;4.10;99.80;;;;;;5022761;28;20234;-81
2021/01/28 08:36:45;;;;;;;14.15;8.13;;;4.20;99.80;;;;;;5014359;28;20346;-82
2021/01/28 08:39:15;;;;;;;14.43;8.27;;;4.10;99.80;;;;;;5011371;28;20222;-81
2021/01/28 08:41:44;;;;;;;13.02;8.75;;;4.20;99.80;;;;;;4988289;28;20846;-80
2021/01/28 08:44:14;;;;;;;13.50;7.82;;;4.20;99.80;;;;;;5011757;28;20700;-81
2021/01/28 08:46:44;;;;;;;16.63;8.90;;;4.20;99.80;;;;;;5027052;28;20924;-84
2021/01/28 08:49:16;;;;;;;13.93;9.15;;;4.30;99.80;;;;;;5004228;28;20226;-83
2021/01/28 08:51:45;;;;;;;12.23;7.80;;;4.30;99.80;;;;;;4997203;28;20271;-80
2021/01/28 08:54:19;;;;;;;15.02;8.43;;;4.30;99.80;;;;;;5014480;28;20229;-80
2021/01/28 08:56:49;;;;;;;15.18;8.73;;;4.30;99.80;;;;;;5009174;28;20218;-81
2021/01/28 08:59:18;;;;;;;12.02;8.10;;;4.30;99.80;;;;;;4992823;28;20239;-82
2021/01/28 09:01:50;;;;;;;11.63;7.15;;;4.40;99.80;;;;;;5017138;28;20256;-82
2021/01/28 09:04:24;;;;;;;12.07;6.95;;;4.40;99.80;;;;;;5023615;28;20270;-81
2021/01/28 09:06:51;;;;;;;12.48;7.40;;;4.40;99.80;;;;;;5022823;28;20747;-82
2021/01/28 09:09:25;;;;;;;11.55;7.13;;;4.40;99.80;;;;;;5009432;28;20232;-81
2021/01/28 09:11:53;;;;;;;8.35;6.15;;;4.50;99.80;;;;;;5029841;28;20222;-82
2021/01/28 09:14:32;;;;;;;10.98;6.07;;;4.40;99.80;;;;;;5009808;28;20296;-83
2021/01/28 09:17:03;;;;;;;11.50;6.45;;;4.50;99.80;;;;;;5033093;28;20218;-83
2021/01/28 09:19:33;;;;;;;7.60;5.30;;;4.50;99.80;;;;;;5011634;28;20233;-80
2021/01/28 09:22:03;;;;;;;8.98;6.07;;;4.40;99.80;;;;;;5011943;28;20232;-82
2021/01/28 09:24:36;;;;;;;12.23;6.93;;;4.50;99.80;;;;;;5010578;28;20239;-82
2021/01/28 09:27:29;;;;;;;9.30;6.40;;;4.40;99.80;;;;;;5005281;28;20223;-82
2021/01/28 09:30:15;;;;;;;9.88;5.97;;;4.40;99.80;;;;;;5005065;28;20236;-83
2021/01/28 09:32:43;;;;;;;11.68;7.40;;;4.40;99.80;;;;;;5021153;28;20226;-83
2021/01/28 09:35:15;;;;;;;8.95;6.43;;;4.40;99.80;;;;;;5027483;28;20250;-82
2021/01/28 09:37:45;;;;;;;11.35;6.72;;;4.40;99.80;;;;;;5025675;28;20725;-82
2021/01/28 09:40:26;;;;;;;8.20;5.95;;;4.40;99.80;;;;;;5010090;28;20234;-83
2021/01/28 09:43:25;;;;;;;10.15;6.13;;;4.40;99.80;;;;;;4999979;28;20705;-82
2021/01/28 09:46:11;;;;;;;9.43;6.85;;;4.50;99.80;;;;;;5005129;28;20235;-82
2021/01/28 09:48:39;;;;;;;8.70;5.85;;;4.50;99.80;;;;;;5024654;28;20258;-82
2021/01/28 09:51:08;;;;;;;13.77;7.10;;;4.50;99.80;;;;;;5010313;28;20229;-82
2021/01/28 09:53:36;;;;;;;10.65;6.85;;;4.50;99.80;;;;;;5007325;28;20229;-82
2021/01/28 09:56:04;;;;;;;8.82;6.22;;;4.60;99.80;;;;;;5029591;28;20237;-82
2021/01/28 09:58:31;;;;;;;8.05;5.97;;;4.70;99.80;;;;;;4998730;28;20324;-82
2021/01/28 10:00:58;;;;;;;8.80;6.22;;;4.70;99.80;;;;;;5030916;28;20242;-82
2021/01/28 10:03:26;;;;;;;15.93;5.57;;;4.70;99.80;;;;;;5028430;28;20233;-81
2021/01/28 10:05:53;;;;;;;24.75;6.85;;;4.80;99.80;;;;;;5031264;28;20217;-82
2021/01/28 10:08:20;;;;;;;7.93;5.75;;;4.80;99.80;;;;;;5027740;28;20728;-82
2021/01/28 10:10:48;;;;;;;8.73;6.30;;;4.80;99.80;;;;;;5017873;28;20315;-82
2021/01/28 10:13:17;;;;;;;7.65;5.60;;;4.80;99.80;;;;;;5000991;28;20253;-81
2021/01/28 10:15:44;;;;;;;12.23;6.43;;;4.90;99.80;;;;;;5032112;28;20263;-82
2021/01/28 10:18:12;;;;;;;8.32;5.63;;;4.90;99.80;;;;;;5026452;28;20720;-82
2021/01/28 10:20:42;;;;;;;7.70;5.28;;;4.90;99.80;;;;;;5018398;28;20239;-79
2021/01/28 10:23:09;;;;;;;9.10;6.35;;;4.90;99.80;;;;;;5012395;28;21292;-83
2021/01/28 10:25:37;;;;;;;6.85;5.53;;;5.00;99.80;;;;;;4996924;28;20254;-83
2021/01/28 10:28:04;;;;;;;5.47;4.88;;;5.00;99.80;;;;;;5002080;28;20226;-83
2021/01/28 10:30:32;;;;;;;6.78;4.72;;;5.00;99.80;;;;;;5014938;28;20925;-82
2021/01/28 10:32:59;;;;;;;7.10;5.38;;;5.00;99.80;;;;;;5029348;28;20790;-82
2021/01/28 10:35:30;;;;;;;7.28;5.13;;;5.10;99.80;;;;;;4999323;28;20318;-79
2021/01/28 10:38:02;;;;;;;7.20;5.03;;;5.10;99.80;;;;;;5016733;28;20281;-82
2021/01/28 10:40:30;;;;;;;11.38;6.95;;;5.10;99.80;;;;;;5005054;28;20319;-82
2021/01/28 10:43:01;;;;;;;6.68;4.63;;;5.10;99.80;;;;;;5002356;28;20230;-79
2021/01/28 10:45:30;;;;;;;6.88;4.45;;;5.10;99.80;;;;;;5020600;28;20224;-82
2021/01/28 10:47:57;;;;;;;5.65;4.45;;;5.20;99.80;;;;;;5029330;28;20655;-82
2021/01/28 10:50:31;;;;;;;5.55;4.43;;;5.20;99.80;;;;;;5026711;28;20318;-82
2021/01/28 10:52:58;;;;;;;5.63;4.50;;;5.20;99.80;;;;;;5018431;28;20223;-81
2021/01/28 10:55:28;;;;;;;7.80;5.35;;;5.20;99.80;;;;;;5002203;28;20231;-82
2021/01/28 10:57:55;;;;;;;8.13;4.80;;;5.20;99.80;;;;;;5007647;28;20238;-82
2021/01/28 11:00:24;;;;;;;5.72;4.25;;;5.10;99.80;;;;;;5014871;28;20239;-81
2021/01/28 11:02:51;;;;;;;5.18;4.65;;;5.10;99.80;;;;;;5021242;28;20230;-81
2021/01/28 11:05:21;;;;;;;8.25;4.70;;;5.00;99.80;;;;;;4998985;28;20244;-82
2021/01/28 11:07:49;;;;;;;8.02;5.35;;;5.10;99.80;;;;;;4996638;28;20236;-82
2021/01/28 11:10:16;;;;;;;5.55;4.95;;;5.10;99.80;;;;;;4994751;28;20228;-81
2021/01/28 11:12:44;;;;;;;12.82;4.68;;;5.10;99.80;;;;;;5018287;28;20226;-81
2021/01/28 11:15:12;;;;;;;5.60;4.07;;;5.10;99.80;;;;;;5017741;28;20251;-82
2021/01/28 11:17:40;;;;;;;7.63;5.18;;;5.10;99.80;;;;;;5025903;28;20268;-83
2021/01/28 11:20:10;;;;;;;6.00;4.50;;;5.10;99.80;;;;;;5023719;28;20228;-82
2021/01/28 11:22:37;;;;;;;5.90;5.00;;;5.10;99.80;;;;;;5025346;28;20239;-82
2021/01/28 11:25:07;;;;;;;6.07;5.10;;;5.10;99.80;;;;;;5009729;28;20226;-82
2021/01/28 11:27:34;;;;;;;6.93;5.10;;;5.20;99.80;;;;;;5009668;28;20258;-82
2021/01/28 11:30:02;;;;;;;6.32;5.20;;;5.20;99.80;;;;;;5019881;28;20602;-82
2021/01/28 11:32:29;;;;;;;6.93;5.25;;;5.30;99.80;;;;;;5032489;28;20234;-82
2021/01/28 11:34:56;;;;;;;6.82;5.68;;;5.30;99.80;;;;;;5004732;28;20231;-82
2021/01/28 11:37:24;;;;;;;7.88;4.88;;;5.30;99.80;;;;;;5003847;28;20275;-82
2021/01/28 11:39:51;;;;;;;7.72;5.75;;;5.30;99.80;;;;;;5001814;28;20244;-82
2021/01/28 11:42:19;;;;;;;7.25;5.63;;;5.40;99.80;;;;;;4992856;28;20231;-82
2021/01/28 11:44:46;;;;;;;7.30;5.38;;;5.40;99.80;;;;;;5012061;28;20230;-82
2021/01/28 11:47:14;;;;;;;6.93;5.40;;;5.40;99.80;;;;;;5027494;28;20705;-82
2021/01/28 11:49:42;;;;;;;6.40;4.82;;;5.40;99.80;;;;;;5020309;28;20371;-82
2021/01/28 11:52:09;;;;;;;7.85;6.50;;;5.50;99.80;;;;;;5021291;28;20327;-82
2021/01/28 11:54:37;;;;;;;6.63;5.40;;;5.50;99.80;;;;;;5009672;28;20248;-83
2021/01/28 11:57:05;;;;;;;8.43;5.55;;;5.60;99.80;;;;;;4997192;28;20261;-81
2021/01/28 11:59:32;;;;;;;6.68;4.95;;;5.60;99.80;;;;;;5020252;28;20323;-82
2021/01/28 12:01:59;;;;;;;8.27;4.45;;;5.70;99.80;;;;;;5033809;28;20605;-82
2021/01/28 12:04:28;;;;;;;10.15;4.97;;;5.90;99.80;;;;;;5025184;28;20236;-82
2021/01/28 12:06:55;;;;;;;6.00;5.13;;;6.00;99.80;;;;;;5003688;28;20693;-82
2021/01/28 12:09:22;;;;;;;5.43;4.43;;;6.20;99.80;;;;;;5005063;28;20308;-82
2021/01/28 12:11:49;;;;;;;5.10;4.55;;;6.30;99.80;;;;;;4986011;28;20296;-83
2021/01/28 12:14:16;;;;;;;4.68;3.80;;;6.30;99.80;;;;;;5027166;28;20224;-81
2021/01/28 12:16:43;;;;;;;5.45;4.82;;;6.40;99.80;;;;;;5014456;28;20242;-83
2021/01/28 12:19:12;;;;;;;4.55;3.78;;;6.40;99.80;;;;;;5015733;28;20233;-82
2021/01/28 12:21:40;;;;;;;4.07;3.30;;;6.50;99.80;;;;;;4977713;28;20670;-82
2021/01/28 12:24:07;;;;;;;4.15;3.20;;;6.50;99.80;;;;;;5010154;28;20235;-83
2021/01/28 12:26:34;;;;;;;3.55;3.25;;;6.60;99.80;;;;;;4996696;28;20290;-82
2021/01/28 12:29:01;;;;;;;3.83;2.97;;;6.60;99.80;;;;;;4987459;28;20235;-82
2021/01/28 12:31:28;;;;;;;4.00;3.58;;;6.70;99.80;;;;;;5033169;28;20449;-82
2021/01/28 12:33:56;;;;;;;3.83;3.42;;;6.70;99.80;;;;;;5024477;28;20581;-83
2021/01/28 12:36:24;;;;;;;3.65;3.22;;;6.60;99.80;;;;;;5022220;28;20327;-83
2021/01/28 12:38:52;;;;;;;3.58;3.30;;;6.60;99.80;;;;;;5022181;28;20316;-82
2021/01/28 12:41:19;;;;;;;4.22;3.25;;;6.50;99.80;;;;;;4995248;28;20239;-82
2021/01/28 12:43:46;;;;;;;3.30;3.00;;;6.50;99.80;;;;;;5001199;28;20232;-83
2021/01/28 12:46:13;;;;;;;3.35;3.05;;;6.50;99.80;;;;;;5026786;28;20253;-79
2021/01/28 12:48:41;;;;;;;3.45;3.03;;;6.40;99.80;;;;;;5018731;28;20234;-79
2021/01/28 12:51:08;;;;;;;3.78;3.13;;;6.50;99.80;;;;;;5002271;28;20326;-82
2021/01/28 12:53:35;;;;;;;3.50;3.13;;;6.60;99.80;;;;;;5012265;28;20335;-81
2021/01/28 12:56:03;;;;;;;2.17;2.08;;;6.60;99.80;;;;;;5003792;28;20236;-82
2021/01/28 12:58:30;;;;;;;3.70;2.60;;;6.50;99.80;;;;;;5001204;28;20232;-82
2021/01/28 13:00:57;;;;;;;2.90;2.60;;;6.50;99.80;;;;;;5030569;28;20608;-83
2021/01/28 13:03:24;;;;;;;3.42;2.67;;;6.50;99.80;;;;;;5023275;28;20232;-82
2021/01/28 13:05:51;;;;;;;4.53;2.95;;;6.50;99.80;;;;;;5023085;28;20225;-82